sensor_id;sensor_type;location;lat;lon;timestamp;P1;durP1;ratioP1;P2;durP2;ratioP2
21213;SDS011;10764;50.850;2.904;2022-10-22T00:00:43;1111.78;;;992.53;;
21213;SDS011;10764;50.850;2.904;2022-10-22T00:03:10;1110.75;;;992.00;;
21213;SDS011;10764;50.850;2.904;2022-10-22T00:05:38;1108.03;;;989.20;;
21213;SDS011;10764;50.850;2.904;2022-10-22T00:08:05;1113.57;;;994.13;;
21213;SDS011;10764;50.850;2.904;2022-10-22T00:10:32;1114.97;;;995.67;;
21213;SDS011;10764;50.850;2.904;2022-10-22T00:12:59;1112.18;;;993.05;;
21213;SDS011;10764;50.850;2.904;2022-10-22T00:15:26;1112.03;;;992.90;;
21213;SDS011;10764;50.850;2.904;2022-10-22T00:17:54;1115.78;;;996.58;;
21213;SDS011;10764;50.850;2.904;2022-10-22T00:20:21;1109.45;;;991.05;;
21213;SDS011;10764;50.850;2.904;2022-10-22T00:22:48;1107.13;;;988.65;;
21213;SDS011;10764;50.850;2.904;2022-10-22T00:25:20;1109.22;;;990.83;;
21213;SDS011;10764;50.850;2.904;2022-10-22T00:27:48;1114.70;;;996.10;;
21213;SDS011;10764;50.850;2.904;2022-10-22T00:30:15;1111.60;;;992.83;;
21213;SDS011;10764;50.850;2.904;2022-10-22T00:32:42;1114.07;;;995.30;;
21213;SDS011;10764;50.850;2.904;2022-10-22T00:35:09;1115.25;;;996.10;;
21213;SDS011;10764;50.850;2.904;2022-10-22T00:37:36;1115.35;;;995.95;;
21213;SDS011;10764;50.850;2.904;2022-10-22T00:40:04;1114.37;;;995.23;;
21213;SDS011;10764;50.850;2.904;2022-10-22T00:42:31;1113.25;;;994.53;;
21213;SDS011;10764;50.850;2.904;2022-10-22T00:47:26;1112.03;;;993.42;;
21213;SDS011;10764;50.850;2.904;2022-10-22T00:49:54;1111.60;;;993.10;;
21213;SDS011;10764;50.850;2.904;2022-10-22T00:52:22;1116.60;;;997.40;;
21213;SDS011;10764;50.850;2.904;2022-10-22T00:54:49;1112.00;;;993.45;;
21213;SDS011;10764;50.850;2.904;2022-10-22T00:57:17;1108.75;;;989.85;;
21213;SDS011;10764;50.850;2.904;2022-10-22T00:59:45;1117.50;;;998.33;;
21213;SDS011;10764;50.850;2.904;2022-10-22T01:02:13;1114.15;;;995.28;;
21213;SDS011;10764;50.850;2.904;2022-10-22T01:04:40;1115.63;;;996.17;;
21213;SDS011;10764;50.850;2.904;2022-10-22T01:07:10;1116.13;;;996.83;;
21213;SDS011;10764;50.850;2.904;2022-10-22T01:12:17;1114.18;;;995.08;;
21213;SDS011;10764;50.850;2.904;2022-10-22T01:17:54;1116.13;;;997.03;;
21213;SDS011;10764;50.850;2.904;2022-10-22T01:31:01;1112.20;;;993.67;;
21213;SDS011;10764;50.850;2.904;2022-10-22T01:33:29;1108.43;;;990.08;;
21213;SDS011;10764;50.850;2.904;2022-10-22T01:35:56;1117.28;;;998.60;;
21213;SDS011;10764;50.850;2.904;2022-10-22T01:38:25;1118.05;;;998.90;;
21213;SDS011;10764;50.850;2.904;2022-10-22T01:40:52;1117.65;;;998.65;;
21213;SDS011;10764;50.850;2.904;2022-10-22T01:43:20;1120.93;;;999.90;;
21213;SDS011;10764;50.850;2.904;2022-10-22T01:45:49;1121.43;;;999.90;;
21213;SDS011;10764;50.850;2.904;2022-10-22T01:48:31;1119.20;;;999.67;;
21213;SDS011;10764;50.850;2.904;2022-10-22T02:01:48;1125.57;;;999.90;;
21213;SDS011;10764;50.850;2.904;2022-10-22T02:04:22;1124.95;;;999.90;;
21213;SDS011;10764;50.850;2.904;2022-10-22T02:06:52;1122.75;;;999.90;;
21213;SDS011;10764;50.850;2.904;2022-10-22T02:09:20;1121.22;;;999.90;;
21213;SDS011;10764;50.850;2.904;2022-10-22T02:11:48;1118.05;;;999.15;;
21213;SDS011;10764;50.850;2.904;2022-10-22T02:14:16;1112.53;;;994.10;;
21213;SDS011;10764;50.850;2.904;2022-10-22T02:16:45;1111.72;;;993.25;;
21213;SDS011;10764;50.850;2.904;2022-10-22T02:19:27;1113.40;;;994.38;;
21213;SDS011;10764;50.850;2.904;2022-10-22T02:21:56;1109.28;;;990.75;;
21213;SDS011;10764;50.850;2.904;2022-10-22T02:24:23;1109.22;;;990.90;;
21213;SDS011;10764;50.850;2.904;2022-10-22T02:26:54;1115.25;;;996.50;;
21213;SDS011;10764;50.850;2.904;2022-10-22T02:29:34;1114.18;;;995.60;;
21213;SDS011;10764;50.850;2.904;2022-10-22T02:32:03;1115.00;;;996.05;;
21213;SDS011;10764;50.850;2.904;2022-10-22T02:34:32;1116.95;;;997.95;;
21213;SDS011;10764;50.850;2.904;2022-10-22T02:37:00;1117.95;;;999.05;;
21213;SDS011;10764;50.850;2.904;2022-10-22T02:39:28;1113.80;;;995.08;;
21213;SDS011;10764;50.850;2.904;2022-10-22T02:41:56;1115.78;;;996.53;;
21213;SDS011;10764;50.850;2.904;2022-10-22T02:44:23;1111.97;;;993.27;;
21213;SDS011;10764;50.850;2.904;2022-10-22T02:46:51;1109.10;;;990.50;;
21213;SDS011;10764;50.850;2.904;2022-10-22T02:49:18;1117.63;;;998.90;;
21213;SDS011;10764;50.850;2.904;2022-10-22T02:51:45;1111.45;;;993.15;;
21213;SDS011;10764;50.850;2.904;2022-10-22T02:54:12;1099.40;;;981.20;;
21213;SDS011;10764;50.850;2.904;2022-10-22T02:56:40;1106.07;;;987.17;;
21213;SDS011;10764;50.850;2.904;2022-10-22T02:59:07;1108.45;;;989.40;;
21213;SDS011;10764;50.850;2.904;2022-10-22T03:01:34;1105.50;;;986.35;;
21213;SDS011;10764;50.850;2.904;2022-10-22T03:04:02;1101.82;;;983.55;;
21213;SDS011;10764;50.850;2.904;2022-10-22T03:06:29;1099.78;;;981.75;;
21213;SDS011;10764;50.850;2.904;2022-10-22T03:08:56;1101.30;;;982.60;;
21213;SDS011;10764;50.850;2.904;2022-10-22T03:11:23;1099.88;;;981.38;;
21213;SDS011;10764;50.850;2.904;2022-10-22T03:13:51;1102.75;;;984.15;;
21213;SDS011;10764;50.850;2.904;2022-10-22T03:16:18;1104.70;;;985.97;;
21213;SDS011;10764;50.850;2.904;2022-10-22T03:18:45;1103.93;;;985.22;;
21213;SDS011;10764;50.850;2.904;2022-10-22T03:21:18;1106.68;;;987.60;;
21213;SDS011;10764;50.850;2.904;2022-10-22T03:23:46;1107.78;;;988.53;;
21213;SDS011;10764;50.850;2.904;2022-10-22T03:26:14;1103.88;;;984.70;;
21213;SDS011;10764;50.850;2.904;2022-10-22T03:28:41;1110.40;;;990.95;;
21213;SDS011;10764;50.850;2.904;2022-10-22T03:31:08;1100.53;;;981.57;;
21213;SDS011;10764;50.850;2.904;2022-10-22T03:33:36;1104.13;;;984.97;;
21213;SDS011;10764;50.850;2.904;2022-10-22T03:36:03;1097.88;;;979.17;;
21213;SDS011;10764;50.850;2.904;2022-10-22T03:38:33;1101.65;;;982.95;;
21213;SDS011;10764;50.850;2.904;2022-10-22T03:41:00;1107.60;;;988.10;;
21213;SDS011;10764;50.850;2.904;2022-10-22T03:43:27;1104.03;;;984.87;;
21213;SDS011;10764;50.850;2.904;2022-10-22T03:45:54;1101.60;;;982.70;;
21213;SDS011;10764;50.850;2.904;2022-10-22T03:48:22;1103.60;;;984.35;;
21213;SDS011;10764;50.850;2.904;2022-10-22T03:50:49;1108.13;;;988.78;;
21213;SDS011;10764;50.850;2.904;2022-10-22T03:53:16;1109.05;;;989.67;;
21213;SDS011;10764;50.850;2.904;2022-10-22T03:55:43;1107.22;;;988.20;;
21213;SDS011;10764;50.850;2.904;2022-10-22T03:58:10;1108.88;;;989.30;;
21213;SDS011;10764;50.850;2.904;2022-10-22T04:00:37;1109.95;;;990.47;;
21213;SDS011;10764;50.850;2.904;2022-10-22T04:03:05;1107.43;;;988.22;;
21213;SDS011;10764;50.850;2.904;2022-10-22T04:05:32;1105.60;;;986.45;;
21213;SDS011;10764;50.850;2.904;2022-10-22T04:07:59;1109.35;;;989.85;;
21213;SDS011;10764;50.850;2.904;2022-10-22T04:10:26;1110.90;;;991.38;;
21213;SDS011;10764;50.850;2.904;2022-10-22T04:12:53;1112.72;;;993.00;;
21213;SDS011;10764;50.850;2.904;2022-10-22T04:15:22;1108.00;;;988.80;;
21213;SDS011;10764;50.850;2.904;2022-10-22T04:17:51;1111.25;;;991.35;;
21213;SDS011;10764;50.850;2.904;2022-10-22T04:20:19;1100.20;;;981.10;;
21213;SDS011;10764;50.850;2.904;2022-10-22T04:22:46;1109.57;;;989.83;;
21213;SDS011;10764;50.850;2.904;2022-10-22T04:25:13;1106.20;;;986.67;;
21213;SDS011;10764;50.850;2.904;2022-10-22T04:27:40;1108.20;;;988.70;;
21213;SDS011;10764;50.850;2.904;2022-10-22T04:30:08;1108.10;;;988.45;;
21213;SDS011;10764;50.850;2.904;2022-10-22T04:32:35;1105.55;;;986.20;;
21213;SDS011;10764;50.850;2.904;2022-10-22T04:35:02;1111.32;;;991.38;;
21213;SDS011;10764;50.850;2.904;2022-10-22T04:37:30;1114.28;;;994.08;;
21213;SDS011;10764;50.850;2.904;2022-10-22T04:39:58;1109.70;;;990.10;;
21213;SDS011;10764;50.850;2.904;2022-10-22T04:42:25;1108.35;;;988.85;;
21213;SDS011;10764;50.850;2.904;2022-10-22T04:44:52;1113.85;;;993.53;;
21213;SDS011;10764;50.850;2.904;2022-10-22T04:47:19;1105.55;;;986.35;;
21213;SDS011;10764;50.850;2.904;2022-10-22T04:49:46;1112.35;;;992.45;;
21213;SDS011;10764;50.850;2.904;2022-10-22T04:52:13;1115.75;;;995.55;;
21213;SDS011;10764;50.850;2.904;2022-10-22T04:54:41;1110.40;;;990.90;;
21213;SDS011;10764;50.850;2.904;2022-10-22T04:57:08;1106.47;;;987.28;;
21213;SDS011;10764;50.850;2.904;2022-10-22T04:59:35;1105.57;;;986.28;;
21213;SDS011;10764;50.850;2.904;2022-10-22T05:02:02;1107.18;;;987.72;;
21213;SDS011;10764;50.850;2.904;2022-10-22T05:04:29;1098.22;;;979.50;;
21213;SDS011;10764;50.850;2.904;2022-10-22T05:06:57;1107.73;;;988.63;;
21213;SDS011;10764;50.850;2.904;2022-10-22T05:09:24;1107.30;;;988.13;;
21213;SDS011;10764;50.850;2.904;2022-10-22T05:11:51;1090.65;;;972.47;;
21213;SDS011;10764;50.850;2.904;2022-10-22T05:14:20;1094.38;;;976.05;;
21213;SDS011;10764;50.850;2.904;2022-10-22T05:16:48;1085.88;;;967.70;;
21213;SDS011;10764;50.850;2.904;2022-10-22T05:19:17;1079.07;;;961.73;;
21213;SDS011;10764;50.850;2.904;2022-10-22T05:21:45;1078.23;;;961.03;;
21213;SDS011;10764;50.850;2.904;2022-10-22T05:24:12;1085.13;;;967.60;;
21213;SDS011;10764;50.850;2.904;2022-10-22T05:26:39;1086.28;;;968.67;;
21213;SDS011;10764;50.850;2.904;2022-10-22T05:29:07;1081.00;;;963.22;;
21213;SDS011;10764;50.850;2.904;2022-10-22T05:31:34;1089.72;;;971.28;;
21213;SDS011;10764;50.850;2.904;2022-10-22T05:34:01;1087.47;;;969.47;;
21213;SDS011;10764;50.850;2.904;2022-10-22T05:36:28;1080.43;;;963.03;;
21213;SDS011;10764;50.850;2.904;2022-10-22T05:38:56;1082.07;;;964.47;;
21213;SDS011;10764;50.850;2.904;2022-10-22T05:41:23;1082.57;;;964.92;;
21213;SDS011;10764;50.850;2.904;2022-10-22T05:43:53;1089.80;;;971.58;;
21213;SDS011;10764;50.850;2.904;2022-10-22T05:46:21;1088.60;;;970.47;;
21213;SDS011;10764;50.850;2.904;2022-10-22T05:48:49;1090.88;;;972.65;;
21213;SDS011;10764;50.850;2.904;2022-10-22T05:51:17;1089.43;;;971.50;;
21213;SDS011;10764;50.850;2.904;2022-10-22T05:53:44;1091.55;;;973.47;;
21213;SDS011;10764;50.850;2.904;2022-10-22T05:56:13;1088.50;;;970.43;;
21213;SDS011;10764;50.850;2.904;2022-10-22T05:58:41;1089.38;;;970.95;;
21213;SDS011;10764;50.850;2.904;2022-10-22T06:01:13;1101.25;;;981.97;;
21213;SDS011;10764;50.850;2.904;2022-10-22T06:03:41;1090.93;;;972.40;;
21213;SDS011;10764;50.850;2.904;2022-10-22T06:06:14;1094.53;;;975.80;;
21213;SDS011;10764;50.850;2.904;2022-10-22T06:08:43;1091.47;;;972.80;;
21213;SDS011;10764;50.850;2.904;2022-10-22T06:11:10;1085.37;;;967.37;;
21213;SDS011;10764;50.850;2.904;2022-10-22T06:13:38;1089.53;;;971.13;;
21213;SDS011;10764;50.850;2.904;2022-10-22T06:16:05;1085.05;;;967.35;;
21213;SDS011;10764;50.850;2.904;2022-10-22T06:18:32;1079.75;;;962.53;;
21213;SDS011;10764;50.850;2.904;2022-10-22T06:21:04;1076.65;;;959.50;;
21213;SDS011;10764;50.850;2.904;2022-10-22T06:23:31;1077.68;;;960.35;;
21213;SDS011;10764;50.850;2.904;2022-10-22T06:25:59;1088.07;;;970.13;;
21213;SDS011;10764;50.850;2.904;2022-10-22T06:28:26;1089.37;;;971.03;;
21213;SDS011;10764;50.850;2.904;2022-10-22T06:30:53;1090.27;;;972.03;;
21213;SDS011;10764;50.850;2.904;2022-10-22T06:33:22;1097.10;;;978.05;;
21213;SDS011;10764;50.850;2.904;2022-10-22T06:35:50;1085.43;;;967.53;;
21213;SDS011;10764;50.850;2.904;2022-10-22T06:38:17;1087.00;;;969.13;;
21213;SDS011;10764;50.850;2.904;2022-10-22T06:40:44;1088.55;;;970.50;;
21213;SDS011;10764;50.850;2.904;2022-10-22T06:43:11;1092.43;;;974.35;;
21213;SDS011;10764;50.850;2.904;2022-10-22T06:45:39;1096.68;;;978.38;;
21213;SDS011;10764;50.850;2.904;2022-10-22T06:48:06;1097.70;;;979.40;;
21213;SDS011;10764;50.850;2.904;2022-10-22T06:50:34;1097.30;;;979.17;;
21213;SDS011;10764;50.850;2.904;2022-10-22T06:53:01;1098.82;;;980.25;;
21213;SDS011;10764;50.850;2.904;2022-10-22T06:55:28;1105.45;;;986.42;;
21213;SDS011;10764;50.850;2.904;2022-10-22T06:57:55;1097.88;;;979.38;;
21213;SDS011;10764;50.850;2.904;2022-10-22T07:00:22;1099.15;;;980.17;;
21213;SDS011;10764;50.850;2.904;2022-10-22T07:02:50;1101.60;;;982.35;;
21213;SDS011;10764;50.850;2.904;2022-10-22T07:05:24;1099.43;;;980.20;;
21213;SDS011;10764;50.850;2.904;2022-10-22T07:07:51;1104.85;;;985.40;;
21213;SDS011;10764;50.850;2.904;2022-10-22T07:10:18;1110.45;;;990.72;;
21213;SDS011;10764;50.850;2.904;2022-10-22T07:12:45;1105.07;;;985.92;;
21213;SDS011;10764;50.850;2.904;2022-10-22T07:15:13;1100.93;;;981.95;;
21213;SDS011;10764;50.850;2.904;2022-10-22T07:17:40;1102.63;;;983.65;;
21213;SDS011;10764;50.850;2.904;2022-10-22T07:20:07;1106.93;;;987.88;;
21213;SDS011;10764;50.850;2.904;2022-10-22T07:22:35;1125.47;;;999.90;;
21213;SDS011;10764;50.850;2.904;2022-10-22T07:25:02;1106.75;;;987.30;;
21213;SDS011;10764;50.850;2.904;2022-10-22T07:27:32;1120.53;;;999.90;;
21213;SDS011;10764;50.850;2.904;2022-10-22T07:29:59;1122.50;;;999.90;;
21213;SDS011;10764;50.850;2.904;2022-10-22T07:32:27;1122.43;;;999.90;;
21213;SDS011;10764;50.850;2.904;2022-10-22T07:34:54;1122.03;;;999.90;;
21213;SDS011;10764;50.850;2.904;2022-10-22T07:37:21;1122.78;;;999.90;;
21213;SDS011;10764;50.850;2.904;2022-10-22T07:39:48;1143.07;;;999.90;;
21213;SDS011;10764;50.850;2.904;2022-10-22T07:42:16;1121.20;;;999.90;;
21213;SDS011;10764;50.850;2.904;2022-10-22T07:44:43;1121.05;;;999.78;;
21213;SDS011;10764;50.850;2.904;2022-10-22T07:47:10;1131.22;;;999.90;;
21213;SDS011;10764;50.850;2.904;2022-10-22T07:49:37;1133.83;;;999.90;;
21213;SDS011;10764;50.850;2.904;2022-10-22T07:52:05;1130.80;;;999.90;;
21213;SDS011;10764;50.850;2.904;2022-10-22T07:54:33;1147.80;;;999.90;;
21213;SDS011;10764;50.850;2.904;2022-10-22T07:57:00;1152.75;;;999.90;;
21213;SDS011;10764;50.850;2.904;2022-10-22T07:59:27;1139.22;;;999.90;;
21213;SDS011;10764;50.850;2.904;2022-10-22T08:01:55;1142.53;;;999.90;;
21213;SDS011;10764;50.850;2.904;2022-10-22T08:04:23;1133.00;;;999.90;;
21213;SDS011;10764;50.850;2.904;2022-10-22T08:06:50;1131.97;;;999.90;;
21213;SDS011;10764;50.850;2.904;2022-10-22T08:09:17;1130.50;;;999.90;;
21213;SDS011;10764;50.850;2.904;2022-10-22T08:11:44;1135.55;;;999.90;;
21213;SDS011;10764;50.850;2.904;2022-10-22T08:14:12;1132.50;;;999.90;;
21213;SDS011;10764;50.850;2.904;2022-10-22T08:16:39;1140.38;;;999.90;;
21213;SDS011;10764;50.850;2.904;2022-10-22T08:19:06;1138.72;;;999.90;;
21213;SDS011;10764;50.850;2.904;2022-10-22T08:21:33;1132.60;;;999.90;;
21213;SDS011;10764;50.850;2.904;2022-10-22T08:24:01;1140.18;;;999.90;;
21213;SDS011;10764;50.850;2.904;2022-10-22T08:26:28;1148.32;;;999.90;;
21213;SDS011;10764;50.850;2.904;2022-10-22T08:28:55;1137.65;;;999.90;;
21213;SDS011;10764;50.850;2.904;2022-10-22T08:31:22;1135.53;;;999.90;;
21213;SDS011;10764;50.850;2.904;2022-10-22T08:33:49;1138.05;;;999.90;;
21213;SDS011;10764;50.850;2.904;2022-10-22T08:36:17;1135.53;;;999.90;;
21213;SDS011;10764;50.850;2.904;2022-10-22T08:38:44;1142.00;;;999.90;;
21213;SDS011;10764;50.850;2.904;2022-10-22T08:41:18;1141.07;;;999.90;;
21213;SDS011;10764;50.850;2.904;2022-10-22T08:46:25;1135.78;;;999.90;;
21213;SDS011;10764;50.850;2.904;2022-10-22T08:49:02;1136.03;;;999.90;;
21213;SDS011;10764;50.850;2.904;2022-10-22T08:51:39;1132.60;;;999.90;;
21213;SDS011;10764;50.850;2.904;2022-10-22T08:56:43;1133.75;;;999.90;;
21213;SDS011;10764;50.850;2.904;2022-10-22T08:59:25;1128.80;;;999.90;;
21213;SDS011;10764;50.850;2.904;2022-10-22T09:01:54;1134.13;;;999.90;;
21213;SDS011;10764;50.850;2.904;2022-10-22T09:07:17;1133.00;;;999.90;;
21213;SDS011;10764;50.850;2.904;2022-10-22T09:09:46;1149.32;;;999.90;;
21213;SDS011;10764;50.850;2.904;2022-10-22T09:12:16;1144.55;;;999.90;;
21213;SDS011;10764;50.850;2.904;2022-10-22T09:14:45;1140.38;;;999.90;;
21213;SDS011;10764;50.850;2.904;2022-10-22T09:17:32;1143.88;;;999.90;;
21213;SDS011;10764;50.850;2.904;2022-10-22T09:25:26;1133.57;;;999.90;;
21213;SDS011;10764;50.850;2.904;2022-10-22T09:27:54;1144.20;;;999.90;;
21213;SDS011;10764;50.850;2.904;2022-10-22T09:30:24;1139.22;;;999.90;;
21213;SDS011;10764;50.850;2.904;2022-10-22T09:33:06;1138.38;;;999.90;;
21213;SDS011;10764;50.850;2.904;2022-10-22T09:38:20;1136.88;;;999.90;;
21213;SDS011;10764;50.850;2.904;2022-10-22T09:40:48;1142.00;;;999.90;;
21213;SDS011;10764;50.850;2.904;2022-10-22T09:43:16;1132.80;;;999.90;;
21213;SDS011;10764;50.850;2.904;2022-10-22T09:45:44;1131.90;;;999.90;;
21213;SDS011;10764;50.850;2.904;2022-10-22T09:48:22;1131.95;;;999.90;;
21213;SDS011;10764;50.850;2.904;2022-10-22T09:51:06;1139.23;;;999.90;;
21213;SDS011;10764;50.850;2.904;2022-10-22T09:53:46;1146.60;;;999.90;;
21213;SDS011;10764;50.850;2.904;2022-10-22T09:58:54;1143.70;;;999.90;;
21213;SDS011;10764;50.850;2.904;2022-10-22T10:01:32;1141.30;;;999.90;;
21213;SDS011;10764;50.850;2.904;2022-10-22T10:04:06;1144.33;;;999.90;;
21213;SDS011;10764;50.850;2.904;2022-10-22T10:06:36;1145.40;;;999.90;;
21213;SDS011;10764;50.850;2.904;2022-10-22T10:09:17;1148.50;;;999.90;;
21213;SDS011;10764;50.850;2.904;2022-10-22T10:11:48;1154.35;;;999.90;;
21213;SDS011;10764;50.850;2.904;2022-10-22T10:14:19;1153.57;;;999.90;;
21213;SDS011;10764;50.850;2.904;2022-10-22T10:19:25;1151.78;;;999.90;;
21213;SDS011;10764;50.850;2.904;2022-10-22T10:22:02;1150.57;;;999.90;;
21213;SDS011;10764;50.850;2.904;2022-10-22T10:27:37;1155.00;;;999.90;;
21213;SDS011;10764;50.850;2.904;2022-10-22T10:30:09;1159.35;;;999.90;;
21213;SDS011;10764;50.850;2.904;2022-10-22T10:35:27;1157.03;;;999.90;;
21213;SDS011;10764;50.850;2.904;2022-10-22T10:48:15;1160.60;;;999.90;;
21213;SDS011;10764;50.850;2.904;2022-10-22T10:56:32;1166.40;;;999.90;;
21213;SDS011;10764;50.850;2.904;2022-10-22T10:59:27;1160.77;;;999.90;;
21213;SDS011;10764;50.850;2.904;2022-10-22T11:02:25;1161.95;;;999.90;;
21213;SDS011;10764;50.850;2.904;2022-10-22T11:07:38;1161.85;;;999.90;;
21213;SDS011;10764;50.850;2.904;2022-10-22T11:10:23;1165.40;;;999.90;;
21213;SDS011;10764;50.850;2.904;2022-10-22T11:12:53;1164.93;;;999.90;;
21213;SDS011;10764;50.850;2.904;2022-10-22T11:17:51;1164.75;;;999.90;;
21213;SDS011;10764;50.850;2.904;2022-10-22T11:23:15;1159.68;;;999.90;;
21213;SDS011;10764;50.850;2.904;2022-10-22T11:25:50;1161.70;;;999.90;;
21213;SDS011;10764;50.850;2.904;2022-10-22T11:28:22;1165.82;;;999.90;;
21213;SDS011;10764;50.850;2.904;2022-10-22T11:31:03;1180.70;;;999.90;;
21213;SDS011;10764;50.850;2.904;2022-10-22T11:33:40;1181.32;;;999.90;;
21213;SDS011;10764;50.850;2.904;2022-10-22T11:36:13;1188.57;;;999.90;;
21213;SDS011;10764;50.850;2.904;2022-10-22T11:38:41;1179.95;;;999.90;;
21213;SDS011;10764;50.850;2.904;2022-10-22T11:41:10;1185.38;;;999.90;;
21213;SDS011;10764;50.850;2.904;2022-10-22T11:43:53;1180.43;;;999.90;;
21213;SDS011;10764;50.850;2.904;2022-10-22T11:46:37;1182.50;;;999.90;;
21213;SDS011;10764;50.850;2.904;2022-10-22T11:51:40;1177.35;;;999.90;;
21213;SDS011;10764;50.850;2.904;2022-10-22T12:02:21;1174.18;;;999.90;;
21213;SDS011;10764;50.850;2.904;2022-10-22T12:07:50;1174.97;;;999.90;;
21213;SDS011;10764;50.850;2.904;2022-10-22T12:10:26;1172.30;;;999.90;;
21213;SDS011;10764;50.850;2.904;2022-10-22T12:13:02;1168.63;;;999.90;;
21213;SDS011;10764;50.850;2.904;2022-10-22T12:15:30;1170.47;;;999.90;;
21213;SDS011;10764;50.850;2.904;2022-10-22T12:17:58;1172.63;;;999.90;;
21213;SDS011;10764;50.850;2.904;2022-10-22T12:20:26;1170.30;;;999.90;;
21213;SDS011;10764;50.850;2.904;2022-10-22T12:22:54;1170.97;;;999.90;;
21213;SDS011;10764;50.850;2.904;2022-10-22T12:25:22;1174.20;;;999.90;;
21213;SDS011;10764;50.850;2.904;2022-10-22T12:27:52;1170.97;;;999.90;;
21213;SDS011;10764;50.850;2.904;2022-10-22T12:30:22;1172.13;;;999.90;;
21213;SDS011;10764;50.850;2.904;2022-10-22T12:32:53;1171.43;;;999.90;;
21213;SDS011;10764;50.850;2.904;2022-10-22T12:35:23;1171.03;;;999.90;;
21213;SDS011;10764;50.850;2.904;2022-10-22T12:37:53;1166.70;;;999.90;;
21213;SDS011;10764;50.850;2.904;2022-10-22T12:40:26;1171.17;;;999.90;;
21213;SDS011;10764;50.850;2.904;2022-10-22T12:45:21;1168.97;;;999.90;;
21213;SDS011;10764;50.850;2.904;2022-10-22T12:47:49;1169.95;;;999.90;;
21213;SDS011;10764;50.850;2.904;2022-10-22T12:50:22;1167.68;;;999.90;;
21213;SDS011;10764;50.850;2.904;2022-10-22T12:52:55;1168.72;;;999.90;;
21213;SDS011;10764;50.850;2.904;2022-10-22T12:55:22;1163.05;;;999.90;;
21213;SDS011;10764;50.850;2.904;2022-10-22T12:57:51;1176.50;;;999.90;;
21213;SDS011;10764;50.850;2.904;2022-10-22T13:00:19;1164.28;;;999.90;;
21213;SDS011;10764;50.850;2.904;2022-10-22T13:02:47;1166.47;;;999.90;;
21213;SDS011;10764;50.850;2.904;2022-10-22T13:05:15;1161.78;;;999.90;;
21213;SDS011;10764;50.850;2.904;2022-10-22T13:07:49;1160.32;;;999.90;;
21213;SDS011;10764;50.850;2.904;2022-10-22T13:10:30;1175.60;;;999.90;;
21213;SDS011;10764;50.850;2.904;2022-10-22T13:12:57;1161.25;;;999.90;;
21213;SDS011;10764;50.850;2.904;2022-10-22T13:23:24;1164.05;;;999.90;;
21213;SDS011;10764;50.850;2.904;2022-10-22T13:25:57;1165.63;;;999.90;;
21213;SDS011;10764;50.850;2.904;2022-10-22T13:28:24;1166.05;;;999.90;;
21213;SDS011;10764;50.850;2.904;2022-10-22T13:35:54;1164.67;;;999.90;;
21213;SDS011;10764;50.850;2.904;2022-10-22T13:38:23;1160.97;;;999.90;;
21213;SDS011;10764;50.850;2.904;2022-10-22T13:40:51;1168.80;;;999.90;;
21213;SDS011;10764;50.850;2.904;2022-10-22T13:43:18;1164.78;;;999.90;;
21213;SDS011;10764;50.850;2.904;2022-10-22T13:45:46;1163.50;;;999.90;;
21213;SDS011;10764;50.850;2.904;2022-10-22T13:48:14;1161.95;;;999.90;;
21213;SDS011;10764;50.850;2.904;2022-10-22T13:50:44;1167.47;;;999.90;;
21213;SDS011;10764;50.850;2.904;2022-10-22T13:53:14;1164.83;;;999.90;;
21213;SDS011;10764;50.850;2.904;2022-10-22T13:55:44;1169.05;;;999.90;;
21213;SDS011;10764;50.850;2.904;2022-10-22T13:58:12;1172.15;;;999.90;;
21213;SDS011;10764;50.850;2.904;2022-10-22T14:00:49;1177.68;;;999.90;;
21213;SDS011;10764;50.850;2.904;2022-10-22T14:03:22;1180.63;;;999.90;;
21213;SDS011;10764;50.850;2.904;2022-10-22T14:05:55;1179.10;;;999.90;;
21213;SDS011;10764;50.850;2.904;2022-10-22T14:08:23;1177.37;;;999.90;;
21213;SDS011;10764;50.850;2.904;2022-10-22T14:10:51;1178.27;;;999.90;;
21213;SDS011;10764;50.850;2.904;2022-10-22T14:13:19;1177.03;;;999.90;;
21213;SDS011;10764;50.850;2.904;2022-10-22T14:15:47;1180.93;;;999.90;;
21213;SDS011;10764;50.850;2.904;2022-10-22T14:18:16;1176.85;;;999.90;;
21213;SDS011;10764;50.850;2.904;2022-10-22T14:20:56;1173.10;;;999.90;;
21213;SDS011;10764;50.850;2.904;2022-10-22T14:23:28;1175.43;;;999.90;;
21213;SDS011;10764;50.850;2.904;2022-10-22T14:25:58;1178.78;;;999.90;;
21213;SDS011;10764;50.850;2.904;2022-10-22T14:28:25;1182.73;;;999.90;;
21213;SDS011;10764;50.850;2.904;2022-10-22T14:30:52;1183.37;;;999.90;;
21213;SDS011;10764;50.850;2.904;2022-10-22T14:33:30;1179.82;;;999.90;;
21213;SDS011;10764;50.850;2.904;2022-10-22T14:35:59;1174.60;;;999.90;;
21213;SDS011;10764;50.850;2.904;2022-10-22T14:38:26;1173.57;;;999.90;;
21213;SDS011;10764;50.850;2.904;2022-10-22T14:40:53;1175.43;;;999.90;;
21213;SDS011;10764;50.850;2.904;2022-10-22T14:43:22;1168.83;;;999.90;;
21213;SDS011;10764;50.850;2.904;2022-10-22T14:45:50;1170.78;;;999.90;;
21213;SDS011;10764;50.850;2.904;2022-10-22T14:48:18;1172.15;;;999.90;;
21213;SDS011;10764;50.850;2.904;2022-10-22T14:50:50;1173.45;;;999.90;;
21213;SDS011;10764;50.850;2.904;2022-10-22T14:53:17;1173.47;;;999.90;;
21213;SDS011;10764;50.850;2.904;2022-10-22T14:55:44;1177.18;;;999.90;;
21213;SDS011;10764;50.850;2.904;2022-10-22T14:58:14;1173.78;;;999.90;;
21213;SDS011;10764;50.850;2.904;2022-10-22T15:00:41;1178.75;;;999.90;;
21213;SDS011;10764;50.850;2.904;2022-10-22T15:03:09;1176.25;;;999.90;;
21213;SDS011;10764;50.850;2.904;2022-10-22T15:05:40;1174.57;;;999.90;;
21213;SDS011;10764;50.850;2.904;2022-10-22T15:08:10;1173.72;;;999.90;;
21213;SDS011;10764;50.850;2.904;2022-10-22T15:10:37;1175.40;;;999.90;;
21213;SDS011;10764;50.850;2.904;2022-10-22T15:13:05;1173.00;;;999.90;;
21213;SDS011;10764;50.850;2.904;2022-10-22T15:15:32;1178.18;;;999.90;;
21213;SDS011;10764;50.850;2.904;2022-10-22T15:18:05;1177.70;;;999.90;;
21213;SDS011;10764;50.850;2.904;2022-10-22T15:20:32;1175.45;;;999.90;;
21213;SDS011;10764;50.850;2.904;2022-10-22T15:22:59;1173.45;;;999.90;;
21213;SDS011;10764;50.850;2.904;2022-10-22T15:25:27;1177.78;;;999.90;;
21213;SDS011;10764;50.850;2.904;2022-10-22T15:27:55;1181.93;;;999.90;;
21213;SDS011;10764;50.850;2.904;2022-10-22T15:30:27;1176.45;;;999.90;;
21213;SDS011;10764;50.850;2.904;2022-10-22T15:32:54;1181.47;;;999.90;;
21213;SDS011;10764;50.850;2.904;2022-10-22T15:35:21;1180.20;;;999.90;;
21213;SDS011;10764;50.850;2.904;2022-10-22T15:37:51;1176.93;;;999.90;;
21213;SDS011;10764;50.850;2.904;2022-10-22T15:40:18;1178.00;;;999.90;;
21213;SDS011;10764;50.850;2.904;2022-10-22T15:42:45;1176.70;;;999.90;;
21213;SDS011;10764;50.850;2.904;2022-10-22T15:45:12;1182.22;;;999.90;;